sensor_id;sensor_type;location;lat;lon;timestamp;pressure;altitude;pressure_sealevel;temperature;humidity
77321;BME280;66382;52.252;8.780;2023-04-25T00:01:08;99738.38;;;8.48;64.75
77321;BME280;66382;52.252;8.780;2023-04-25T00:03:34;99722.03;;;8.36;63.55
77321;BME280;66382;52.252;8.780;2023-04-25T00:06:00;99734.25;;;8.46;63.45
77321;BME280;66382;52.252;8.780;2023-04-25T00:08:25;99734.63;;;8.43;63.37
77321;BME280;66382;52.252;8.780;2023-04-25T00:10:51;99706.91;;;8.22;64.25
77321;BME280;66382;52.252;8.780;2023-04-25T00:13:17;99737.50;;;8.41;63.74
77321;BME280;66382;52.252;8.780;2023-04-25T00:15:44;99737.03;;;8.37;64.41
77321;BME280;66382;52.252;8.780;2023-04-25T00:18:10;99736.59;;;8.34;64.05
77321;BME280;66382;52.252;8.780;2023-04-25T00:20:35;99738.44;;;8.33;64.07
77321;BME280;66382;52.252;8.780;2023-04-25T00:23:01;99732.91;;;8.35;64.51
77321;BME280;66382;52.252;8.780;2023-04-25T00:25:27;99736.19;;;8.37;65.03
77321;BME280;66382;52.252;8.780;2023-04-25T00:27:52;99744.84;;;8.39;65.06
77321;BME280;66382;52.252;8.780;2023-04-25T00:30:18;99742.63;;;8.43;65.53
77321;BME280;66382;52.252;8.780;2023-04-25T00:32:45;99741.81;;;8.42;64.86
77321;BME280;66382;52.252;8.780;2023-04-25T00:35:11;99740.41;;;8.46;64.94
77321;BME280;66382;52.252;8.780;2023-04-25T00:37:37;99736.16;;;8.52;64.44
77321;BME280;66382;52.252;8.780;2023-04-25T00:40:05;99732.19;;;8.48;64.50
77321;BME280;66382;52.252;8.780;2023-04-25T00:42:31;99735.91;;;8.47;64.48
77321;BME280;66382;52.252;8.780;2023-04-25T00:44:58;99732.41;;;8.46;64.39
77321;BME280;66382;52.252;8.780;2023-04-25T00:47:24;99737.53;;;8.48;65.59
77321;BME280;66382;52.252;8.780;2023-04-25T00:49:51;99736.72;;;8.47;64.15
77321;BME280;66382;52.252;8.780;2023-04-25T00:52:17;99737.75;;;8.46;64.27
77321;BME280;66382;52.252;8.780;2023-04-25T00:54:43;99740.78;;;8.43;64.59
77321;BME280;66382;52.252;8.780;2023-04-25T00:57:09;99740.19;;;8.41;65.14
77321;BME280;66382;52.252;8.780;2023-04-25T00:59:36;99735.84;;;8.40;65.57
77321;BME280;66382;52.252;8.780;2023-04-25T01:02:03;99739.78;;;8.44;66.20
77321;BME280;66382;52.252;8.780;2023-04-25T01:04:29;99734.63;;;8.43;65.96
77321;BME280;66382;52.252;8.780;2023-04-25T01:06:56;99735.84;;;8.40;65.49
77321;BME280;66382;52.252;8.780;2023-04-25T01:09:22;99737.03;;;8.37;65.56
77321;BME280;66382;52.252;8.780;2023-04-25T01:11:48;99736.19;;;8.37;64.98
77321;BME280;66382;52.252;8.780;2023-04-25T01:14:14;99733.53;;;8.37;65.95
77321;BME280;66382;52.252;8.780;2023-04-25T01:16:40;99744.22;;;8.37;65.56
77321;BME280;66382;52.252;8.780;2023-04-25T01:19:09;99736.19;;;8.37;65.15
77321;BME280;66382;52.252;8.780;2023-04-25T01:21:36;99730.94;;;8.22;65.68
77321;BME280;66382;52.252;8.780;2023-04-25T01:24:02;99745.34;;;8.28;66.80
77321;BME280;66382;52.252;8.780;2023-04-25T01:26:28;99741.22;;;8.25;66.03
77321;BME280;66382;52.252;8.780;2023-04-25T01:28:55;99724.53;;;8.16;66.34
77321;BME280;66382;52.252;8.780;2023-04-25T01:31:21;99722.88;;;8.15;65.72
77321;BME280;66382;52.252;8.780;2023-04-25T01:33:47;99746.00;;;8.30;66.72
77321;BME280;66382;52.252;8.780;2023-04-25T01:36:13;99748.84;;;8.28;65.95
77321;BME280;66382;52.252;8.780;2023-04-25T01:38:41;99753.38;;;8.28;65.54
77321;BME280;66382;52.252;8.780;2023-04-25T01:41:07;99727.38;;;8.15;66.12
77321;BME280;66382;52.252;8.780;2023-04-25T01:43:33;99746.72;;;8.17;67.11
77321;BME280;66382;52.252;8.780;2023-04-25T01:45:59;99746.63;;;8.10;66.50
77321;BME280;66382;52.252;8.780;2023-04-25T01:48:25;99764.69;;;8.08;67.61
77321;BME280;66382;52.252;8.780;2023-04-25T01:50:51;99758.00;;;7.97;66.47
77321;BME280;66382;52.252;8.780;2023-04-25T01:53:16;99759.66;;;7.98;66.06
77321;BME280;66382;52.252;8.780;2023-04-25T01:55:43;99763.63;;;8.03;65.93
77321;BME280;66382;52.252;8.780;2023-04-25T01:58:09;99770.72;;;7.95;65.84
77321;BME280;66382;52.252;8.780;2023-04-25T02:00:35;99770.47;;;7.90;66.11
77321;BME280;66382;52.252;8.780;2023-04-25T02:03:01;99774.97;;;7.90;66.87
77321;BME280;66382;52.252;8.780;2023-04-25T02:05:27;99769.81;;;7.88;66.60
77321;BME280;66382;52.252;8.780;2023-04-25T02:07:52;99777.81;;;7.88;66.44
77321;BME280;66382;52.252;8.780;2023-04-25T02:10:18;99783.16;;;7.88;66.62
77321;BME280;66382;52.252;8.780;2023-04-25T02:12:45;99780.50;;;7.88;66.03
77321;BME280;66382;52.252;8.780;2023-04-25T02:15:11;99785.84;;;7.88;66.00
77321;BME280;66382;52.252;8.780;2023-04-25T02:17:37;99793.03;;;7.88;66.04
77321;BME280;66382;52.252;8.780;2023-04-25T02:20:03;99788.50;;;7.88;66.00
77321;BME280;66382;52.252;8.780;2023-04-25T02:22:29;99792.63;;;7.91;67.06
77321;BME280;66382;52.252;8.780;2023-04-25T02:24:54;99786.69;;;7.89;66.63
77321;BME280;66382;52.252;8.780;2023-04-25T02:27:20;99793.09;;;7.94;66.28
77321;BME280;66382;52.252;8.780;2023-04-25T02:29:47;99802.56;;;7.97;66.26
77321;BME280;66382;52.252;8.780;2023-04-25T02:32:13;99799.53;;;8.00;66.98
77321;BME280;66382;52.252;8.780;2023-04-25T02:34:38;99800.97;;;8.03;66.28
77321;BME280;66382;52.252;8.780;2023-04-25T02:37:04;99802.84;;;8.02;66.61
77321;BME280;66382;52.252;8.780;2023-04-25T02:39:30;99793.38;;;8.00;66.31
77321;BME280;66382;52.252;8.780;2023-04-25T02:41:56;99813.75;;;8.07;66.33
77321;BME280;66382;52.252;8.780;2023-04-25T02:44:21;99804.56;;;8.10;67.64
77321;BME280;66382;52.252;8.780;2023-04-25T02:46:48;99805.38;;;8.10;66.15
77321;BME280;66382;52.252;8.780;2023-04-25T02:49:14;99805.19;;;8.12;66.06
77321;BME280;66382;52.252;8.780;2023-04-25T02:51:40;99801.06;;;8.09;66.30
77321;BME280;66382;52.252;8.780;2023-04-25T02:54:05;99796.47;;;8.03;65.88
77321;BME280;66382;52.252;8.780;2023-04-25T02:56:31;99800.59;;;8.06;66.63
77321;BME280;66382;52.252;8.780;2023-04-25T02:58:58;99790.13;;;8.04;65.82
77321;BME280;66382;52.252;8.780;2023-04-25T03:01:23;99802.91;;;8.09;65.99
77321;BME280;66382;52.252;8.780;2023-04-25T03:03:50;99802.06;;;8.08;64.87
77321;BME280;66382;52.252;8.780;2023-04-25T03:06:16;99804.94;;;8.07;65.74
77321;BME280;66382;52.252;8.780;2023-04-25T03:08:42;99803.00;;;8.01;66.38
77321;BME280;66382;52.252;8.780;2023-04-25T03:11:08;99812.75;;;8.08;66.69
77321;BME280;66382;52.252;8.780;2023-04-25T03:13:33;99807.41;;;8.08;66.88
77321;BME280;66382;52.252;8.780;2023-04-25T03:15:59;99816.88;;;8.11;66.42
77321;BME280;66382;52.252;8.780;2023-04-25T03:18:25;99807.03;;;8.11;65.81
77321;BME280;66382;52.252;8.780;2023-04-25T03:20:52;99814.84;;;8.13;65.79
77321;BME280;66382;52.252;8.780;2023-04-25T03:23:17;99799.13;;;8.03;66.18
77321;BME280;66382;52.252;8.780;2023-04-25T03:25:43;99814.59;;;8.08;66.56
77321;BME280;66382;52.252;8.780;2023-04-25T03:28:09;99816.25;;;8.09;66.29
77321;BME280;66382;52.252;8.780;2023-04-25T03:30:35;99821.22;;;8.12;66.29
77321;BME280;66382;52.252;8.780;2023-04-25T03:33:00;99823.69;;;8.13;65.93
77321;BME280;66382;52.252;8.780;2023-04-25T03:35:26;99822.03;;;8.12;65.99
77321;BME280;66382;52.252;8.780;2023-04-25T03:37:53;99828.75;;;8.08;66.35
77321;BME280;66382;52.252;8.780;2023-04-25T03:40:19;99832.19;;;8.02;65.77
77321;BME280;66382;52.252;8.780;2023-04-25T03:42:44;99817.84;;;7.88;65.84
77321;BME280;66382;52.252;8.780;2023-04-25T03:45:10;99833.97;;;7.95;66.09
77321;BME280;66382;52.252;8.780;2023-04-25T03:47:36;99833.13;;;7.94;66.09
77321;BME280;66382;52.252;8.780;2023-04-25T03:50:02;99837.66;;;7.94;65.69
77321;BME280;66382;52.252;8.780;2023-04-25T03:52:27;99846.22;;;7.89;64.42
77321;BME280;66382;52.252;8.780;2023-04-25T03:54:54;99851.47;;;7.83;65.64
77321;BME280;66382;52.252;8.780;2023-04-25T03:57:20;99852.50;;;7.82;65.11
77321;BME280;66382;52.252;8.780;2023-04-25T03:59:46;99856.72;;;7.76;64.76
77321;BME280;66382;52.252;8.780;2023-04-25T04:02:11;99856.09;;;7.74;65.08
77321;BME280;66382;52.252;8.780;2023-04-25T04:04:37;99872.16;;;7.81;65.17
77321;BME280;66382;52.252;8.780;2023-04-25T04:07:03;99867.66;;;7.81;64.93
77321;BME280;66382;52.252;8.780;2023-04-25T04:09:29;99863.78;;;7.84;65.42
77321;BME280;66382;52.252;8.780;2023-04-25T04:11:56;99868.31;;;7.83;65.02
77321;BME280;66382;52.252;8.780;2023-04-25T04:14:22;99873.00;;;7.81;64.88
77321;BME280;66382;52.252;8.780;2023-04-25T04:16:47;99870.91;;;7.77;64.89
77321;BME280;66382;52.252;8.780;2023-04-25T04:19:13;99878.06;;;7.76;64.68
77321;BME280;66382;52.252;8.780;2023-04-25T04:21:39;99870.44;;;7.73;64.90
77321;BME280;66382;52.252;8.780;2023-04-25T04:24:05;99877.44;;;7.74;64.60
77321;BME280;66382;52.252;8.780;2023-04-25T04:26:31;99881.94;;;7.73;63.98
77321;BME280;66382;52.252;8.780;2023-04-25T04:28:59;99880.00;;;7.67;64.41
77321;BME280;66382;52.252;8.780;2023-04-25T04:31:24;99888.00;;;7.67;64.98
77321;BME280;66382;52.252;8.780;2023-04-25T04:33:50;99888.84;;;7.68;64.15
77321;BME280;66382;52.252;8.780;2023-04-25T04:36:16;99900.34;;;7.68;64.87
77321;BME280;66382;52.252;8.780;2023-04-25T04:38:41;99900.97;;;7.70;64.13
77321;BME280;66382;52.252;8.780;2023-04-25T04:41:08;99885.72;;;7.64;65.33
77321;BME280;66382;52.252;8.780;2023-04-25T04:43:34;99899.13;;;7.71;64.41
77321;BME280;66382;52.252;8.780;2023-04-25T04:46:01;99904.28;;;7.72;65.36
77321;BME280;66382;52.252;8.780;2023-04-25T04:48:27;99911.09;;;7.75;64.79
77321;BME280;66382;52.252;8.780;2023-04-25T04:50:53;99914.41;;;7.77;65.18
77321;BME280;66382;52.252;8.780;2023-04-25T04:53:19;99920.56;;;7.78;64.58
77321;BME280;66382;52.252;8.780;2023-04-25T04:55:44;99912.56;;;7.78;66.08
77321;BME280;66382;52.252;8.780;2023-04-25T04:58:10;99927.38;;;7.80;65.66
77321;BME280;66382;52.252;8.780;2023-04-25T05:00:36;99921.59;;;7.77;65.60
77321;BME280;66382;52.252;8.780;2023-04-25T05:03:03;99903.28;;;7.73;65.55
77321;BME280;66382;52.252;8.780;2023-04-25T05:05:29;99933.16;;;7.84;65.94
77321;BME280;66382;52.252;8.780;2023-04-25T05:07:54;99936.50;;;7.86;66.14
77321;BME280;66382;52.252;8.780;2023-04-25T05:10:20;99948.63;;;7.88;66.05
77321;BME280;66382;52.252;8.780;2023-04-25T05:12:46;99957.28;;;7.90;64.90
77321;BME280;66382;52.252;8.780;2023-04-25T05:15:12;99949.09;;;7.92;65.40
77321;BME280;66382;52.252;8.780;2023-04-25T05:17:37;99953.41;;;7.93;65.77
77321;BME280;66382;52.252;8.780;2023-04-25T05:20:06;99947.69;;;7.96;65.17
77321;BME280;66382;52.252;8.780;2023-04-25T05:22:31;99949.38;;;7.97;65.91
77321;BME280;66382;52.252;8.780;2023-04-25T05:24:57;99953.69;;;7.98;65.47
77321;BME280;66382;52.252;8.780;2023-04-25T05:27:23;99957.56;;;7.95;64.88
77321;BME280;66382;52.252;8.780;2023-04-25T05:29:49;99952.22;;;7.95;65.82
77321;BME280;66382;52.252;8.780;2023-04-25T05:32:15;99959.69;;;8.00;65.50
77321;BME280;66382;52.252;8.780;2023-04-25T05:34:40;99958.09;;;8.06;65.22
77321;BME280;66382;52.252;8.780;2023-04-25T05:37:08;99964.91;;;8.08;65.53
77321;BME280;66382;52.252;8.780;2023-04-25T05:39:33;99962.88;;;8.10;65.08
77321;BME280;66382;52.252;8.780;2023-04-25T05:41:59;99968.88;;;8.12;65.72
77321;BME280;66382;52.252;8.780;2023-04-25T05:44:24;99961.50;;;8.14;65.07
77321;BME280;66382;52.252;8.780;2023-04-25T05:46:50;99964.28;;;8.21;64.85
77321;BME280;66382;52.252;8.780;2023-04-25T05:49:16;99976.44;;;8.24;65.34
77321;BME280;66382;52.252;8.780;2023-04-25T05:51:42;99979.53;;;8.27;65.28
77321;BME280;66382;52.252;8.780;2023-04-25T05:54:09;99982.84;;;8.29;65.10
77321;BME280;66382;52.252;8.780;2023-04-25T05:56:34;99980.63;;;8.33;65.21
77321;BME280;66382;52.252;8.780;2023-04-25T05:59:00;99988.47;;;8.34;64.42
77321;BME280;66382;52.252;8.780;2023-04-25T06:01:26;99989.28;;;8.35;64.40
77321;BME280;66382;52.252;8.780;2023-04-25T06:03:51;99985.06;;;8.26;64.38
77321;BME280;66382;52.252;8.780;2023-04-25T06:06:17;99993.16;;;8.32;63.68
77321;BME280;66382;52.252;8.780;2023-04-25T06:08:43;100001.56;;;8.29;63.92
77321;BME280;66382;52.252;8.780;2023-04-25T06:11:11;99999.06;;;8.28;63.63
77321;BME280;66382;52.252;8.780;2023-04-25T06:13:37;99997.78;;;8.24;63.75
77321;BME280;66382;52.252;8.780;2023-04-25T06:16:03;99995.84;;;8.17;63.25
77321;BME280;66382;52.252;8.780;2023-04-25T06:18:28;100006.41;;;8.26;63.67
77321;BME280;66382;52.252;8.780;2023-04-25T06:20:54;99997.22;;;8.28;64.24
77321;BME280;66382;52.252;8.780;2023-04-25T06:23:20;100003.66;;;8.34;63.51
77321;BME280;66382;52.252;8.780;2023-04-25T06:25:46;100006.34;;;8.34;64.61
77321;BME280;66382;52.252;8.780;2023-04-25T06:28:13;100018.97;;;8.40;63.84
77321;BME280;66382;52.252;8.780;2023-04-25T06:30:38;100013.25;;;8.43;63.71
77321;BME280;66382;52.252;8.780;2023-04-25T06:33:04;100011.75;;;8.55;65.19
77321;BME280;66382;52.252;8.780;2023-04-25T06:35:30;100018.09;;;8.69;64.50
77321;BME280;66382;52.252;8.780;2023-04-25T06:37:55;100004.09;;;8.67;63.71
77321;BME280;66382;52.252;8.780;2023-04-25T06:40:21;100018.03;;;8.84;63.39
77321;BME280;66382;52.252;8.780;2023-04-25T06:42:47;100029.66;;;8.91;63.61
77321;BME280;66382;52.252;8.780;2023-04-25T06:45:14;100008.19;;;8.85;63.47
77321;BME280;66382;52.252;8.780;2023-04-25T06:47:40;100021.97;;;9.03;63.65
77321;BME280;66382;52.252;8.780;2023-04-25T06:50:06;100034.38;;;9.11;62.97
77321;BME280;66382;52.252;8.780;2023-04-25T06:52:32;100039.09;;;9.09;62.80
77321;BME280;66382;52.252;8.780;2023-04-25T06:54:58;100042.31;;;9.04;62.36
77321;BME280;66382;52.252;8.780;2023-04-25T06:57:23;100040.59;;;8.96;62.25
77321;BME280;66382;52.252;8.780;2023-04-25T06:59:49;100038.31;;;8.93;63.06
77321;BME280;66382;52.252;8.780;2023-04-25T07:02:16;100037.75;;;8.98;62.53
77321;BME280;66382;52.252;8.780;2023-04-25T07:04:42;100040.28;;;9.06;62.61
77321;BME280;66382;52.252;8.780;2023-04-25T07:07:07;100040.81;;;9.16;62.65
77321;BME280;66382;52.252;8.780;2023-04-25T07:09:33;100043.41;;;9.31;63.21
77321;BME280;66382;52.252;8.780;2023-04-25T07:11:59;100047.34;;;9.57;63.56
77321;BME280;66382;52.252;8.780;2023-04-25T07:14:25;100036.66;;;9.85;62.52
77321;BME280;66382;52.252;8.780;2023-04-25T07:16:50;100048.31;;;10.05;61.76
77321;BME280;66382;52.252;8.780;2023-04-25T07:19:17;100048.69;;;10.30;63.25
77321;BME280;66382;52.252;8.780;2023-04-25T07:21:43;100050.03;;;10.48;62.21
77321;BME280;66382;52.252;8.780;2023-04-25T07:24:09;100038.31;;;10.49;62.08
77321;BME280;66382;52.252;8.780;2023-04-25T07:26:34;100056.66;;;10.52;59.99
77321;BME280;66382;52.252;8.780;2023-04-25T07:29:00;100058.47;;;10.45;60.57
77321;BME280;66382;52.252;8.780;2023-04-25T07:31:26;100072.47;;;10.40;59.90
77321;BME280;66382;52.252;8.780;2023-04-25T07:33:52;100066.44;;;10.31;60.11
77321;BME280;66382;52.252;8.780;2023-04-25T07:36:19;100067.28;;;10.32;60.69
77321;BME280;66382;52.252;8.780;2023-04-25T07:38:45;100069.78;;;10.40;59.83
77321;BME280;66382;52.252;8.780;2023-04-25T07:41:10;100069.41;;;10.50;60.43
77321;BME280;66382;52.252;8.780;2023-04-25T07:43:36;100063.28;;;10.56;60.94
77321;BME280;66382;52.252;8.780;2023-04-25T07:46:02;100074.09;;;10.83;59.60
77321;BME280;66382;52.252;8.780;2023-04-25T07:48:27;100070.31;;;11.25;62.28
77321;BME280;66382;52.252;8.780;2023-04-25T07:50:53;100073.84;;;11.79;60.94
77321;BME280;66382;52.252;8.780;2023-04-25T07:53:20;100078.19;;;12.20;60.62
77321;BME280;66382;52.252;8.780;2023-04-25T07:55:46;100077.34;;;12.26;58.75
77321;BME280;66382;52.252;8.780;2023-04-25T07:58:11;100072.63;;;12.15;57.11
77321;BME280;66382;52.252;8.780;2023-04-25T08:00:37;100078.84;;;12.02;56.67
77321;BME280;66382;52.252;8.780;2023-04-25T08:03:03;100070.59;;;11.90;57.41
77321;BME280;66382;52.252;8.780;2023-04-25T08:05:29;100079.44;;;11.64;57.29
77321;BME280;66382;52.252;8.780;2023-04-25T08:07:55;100081.47;;;11.42;56.94
77321;BME280;66382;52.252;8.780;2023-04-25T08:10:22;100095.69;;;11.23;56.75
77321;BME280;66382;52.252;8.780;2023-04-25T08:12:48;100088.41;;;11.03;56.91
77321;BME280;66382;52.252;8.780;2023-04-25T08:15:13;100092.28;;;10.87;57.59
77321;BME280;66382;52.252;8.780;2023-04-25T08:17:39;100097.00;;;10.79;58.12
77321;BME280;66382;52.252;8.780;2023-04-25T08:20:06;100099.00;;;10.70;57.41
77321;BME280;66382;52.252;8.780;2023-04-25T08:22:32;100095.09;;;10.66;58.22
77321;BME280;66382;52.252;8.780;2023-04-25T08:24:58;100109.09;;;10.61;58.87
77321;BME280;66382;52.252;8.780;2023-04-25T08:27:25;100108.69;;;10.64;57.59
77321;BME280;66382;52.252;8.780;2023-04-25T08:29:50;100113.53;;;10.89;59.17
77321;BME280;66382;52.252;8.780;2023-04-25T08:32:16;100112.06;;;11.74;60.96
77321;BME280;66382;52.252;8.780;2023-04-25T08:34:42;100117.09;;;12.89;62.27
77321;BME280;66382;52.252;8.780;2023-04-25T08:37:08;100112.69;;;14.03;63.14
77321;BME280;66382;52.252;8.780;2023-04-25T08:39:33;100117.41;;;14.88;59.55
77321;BME280;66382;52.252;8.780;2023-04-25T08:42:00;100115.56;;;14.89;54.85
77321;BME280;66382;52.252;8.780;2023-04-25T08:44:27;100113.19;;;14.37;54.36
77321;BME280;66382;52.252;8.780;2023-04-25T08:46:55;100110.34;;;13.82;54.47
77321;BME280;66382;52.252;8.780;2023-04-25T08:49:21;100120.81;;;13.40;54.32
77321;BME280;66382;52.252;8.780;2023-04-25T08:51:47;100126.78;;;12.97;53.77
77321;BME280;66382;52.252;8.780;2023-04-25T08:54:14;100134.75;;;12.58;52.83
77321;BME280;66382;52.252;8.780;2023-04-25T08:56:43;100136.28;;;12.27;54.78
77321;BME280;66382;52.252;8.780;2023-04-25T08:59:10;100142.09;;;12.04;54.76
77321;BME280;66382;52.252;8.780;2023-04-25T09:01:37;100146.56;;;11.84;54.69
77321;BME280;66382;52.252;8.780;2023-04-25T09:04:03;100148.44;;;11.70;53.53
77321;BME280;66382;52.252;8.780;2023-04-25T09:06:29;100150.06;;;11.65;55.35
77321;BME280;66382;52.252;8.780;2023-04-25T09:08:55;100158.97;;;11.72;55.13
77321;BME280;66382;52.252;8.780;2023-04-25T09:11:26;100159.63;;;12.14;56.89
77321;BME280;66382;52.252;8.780;2023-04-25T09:14:10;100165.03;;;12.20;57.11
77321;BME280;66382;52.252;8.780;2023-04-25T09:16:58;100164.59;;;12.03;55.91
77321;BME280;66382;52.252;8.780;2023-04-25T09:19:25;100176.34;;;11.82;55.71
77321;BME280;66382;52.252;8.780;2023-04-25T09:21:51;100177.13;;;11.56;54.28
77321;BME280;66382;52.252;8.780;2023-04-25T09:24:30;100187.97;;;11.35;55.65
77321;BME280;66382;52.252;8.780;2023-04-25T09:26:56;100202.19;;;11.15;54.01
77321;BME280;66382;52.252;8.780;2023-04-25T09:29:29;100199.13;;;10.84;55.55
77321;BME280;66382;52.252;8.780;2023-04-25T09:32:10;100210.16;;;10.67;55.96
77321;BME280;66382;52.252;8.780;2023-04-25T09:34:39;100204.53;;;10.62;56.43
77321;BME280;66382;52.252;8.780;2023-04-25T09:37:05;100210.31;;;10.59;55.47
77321;BME280;66382;52.252;8.780;2023-04-25T09:39:32;100207.63;;;10.59;55.68
77321;BME280;66382;52.252;8.780;2023-04-25T09:41:59;100201.69;;;10.64;55.72
77321;BME280;66382;52.252;8.780;2023-04-25T09:44:24;100200.84;;;10.98;56.67
77321;BME280;66382;52.252;8.780;2023-04-25T09:46:50;100204.38;;;11.53;57.45
77321;BME280;66382;52.252;8.780;2023-04-25T09:49:19;100206.38;;;11.99;56.91
77321;BME280;66382;52.252;8.780;2023-04-25T09:51:54;100194.69;;;12.92;59.92
77321;BME280;66382;52.252;8.780;2023-04-25T09:54:19;100201.16;;;13.81;58.94
77321;BME280;66382;52.252;8.780;2023-04-25T09:56:48;100197.91;;;14.54;57.89
77321;BME280;66382;52.252;8.780;2023-04-25T09:59:14;100196.69;;;15.12;57.54
77321;BME280;66382;52.252;8.780;2023-04-25T10:01:42;100204.28;;;15.82;56.00
77321;BME280;66382;52.252;8.780;2023-04-25T10:04:10;100201.94;;;16.28;56.30
77321;BME280;66382;52.252;8.780;2023-04-25T10:06:38;100195.03;;;16.79;55.74
77321;BME280;66382;52.252;8.780;2023-04-25T10:09:05;100190.66;;;17.02;55.33
77321;BME280;66382;52.252;8.780;2023-04-25T10:11:32;100198.44;;;17.38;54.26
77321;BME280;66382;52.252;8.780;2023-04-25T10:13:59;100202.72;;;17.63;53.21
77321;BME280;66382;52.252;8.780;2023-04-25T10:16:25;100194.16;;;17.83;53.28
77321;BME280;66382;52.252;8.780;2023-04-25T10:18:52;100193.44;;;18.04;53.09
77321;BME280;66382;52.252;8.780;2023-04-25T10:21:18;100200.97;;;18.02;48.84
77321;BME280;66382;52.252;8.780;2023-04-25T10:23:47;100197.09;;;17.81;51.93
77321;BME280;66382;52.252;8.780;2023-04-25T10:26:14;100197.75;;;17.31;47.18
77321;BME280;66382;52.252;8.780;2023-04-25T10:28:55;100211.13;;;16.62;50.25
77321;BME280;66382;52.252;8.780;2023-04-25T10:31:21;100212.47;;;16.06;48.97
77321;BME280;66382;52.252;8.780;2023-04-25T10:33:48;100207.25;;;15.81;48.32
77321;BME280;66382;52.252;8.780;2023-04-25T10:36:15;100214.22;;;15.70;50.50
77321;BME280;66382;52.252;8.780;2023-04-25T10:38:43;100204.78;;;15.61;48.73
77321;BME280;66382;52.252;8.780;2023-04-25T10:41:11;100212.09;;;15.60;49.58
77321;BME280;66382;52.252;8.780;2023-04-25T10:43:38;100206.03;;;15.28;48.37
77321;BME280;66382;52.252;8.780;2023-04-25T10:46:15;100213.53;;;15.08;51.22
77321;BME280;66382;52.252;8.780;2023-04-25T10:48:46;100207.69;;;14.92;47.01
77321;BME280;66382;52.252;8.780;2023-04-25T10:51:16;100210.59;;;14.72;50.31
77321;BME280;66382;52.252;8.780;2023-04-25T10:53:43;100224.47;;;14.51;48.88
77321;BME280;66382;52.252;8.780;2023-04-25T10:56:11;100229.66;;;14.27;49.93
77321;BME280;66382;52.252;8.780;2023-04-25T10:58:43;100233.28;;;13.83;48.79
77321;BME280;66382;52.252;8.780;2023-04-25T11:01:09;100237.81;;;13.44;47.84
77321;BME280;66382;52.252;8.780;2023-04-25T11:03:39;100240.38;;;13.05;49.10
77321;BME280;66382;52.252;8.780;2023-04-25T11:06:07;100246.44;;;12.87;49.76
77321;BME280;66382;52.252;8.780;2023-04-25T11:08:46;100245.03;;;12.65;50.42
77321;BME280;66382;52.252;8.780;2023-04-25T11:11:14;100247.53;;;12.46;47.27
77321;BME280;66382;52.252;8.780;2023-04-25T11:13:40;100247.94;;;12.30;48.68
77321;BME280;66382;52.252;8.780;2023-04-25T11:16:07;100246.91;;;12.24;49.66
77321;BME280;66382;52.252;8.780;2023-04-25T11:18:32;100253.09;;;12.25;49.63
77321;BME280;66382;52.252;8.780;2023-04-25T11:20:58;100247.31;;;12.28;50.03
77321;BME280;66382;52.252;8.780;2023-04-25T11:23:24;100255.59;;;12.26;49.86
77321;BME280;66382;52.252;8.780;2023-04-25T11:25:50;100252.06;;;12.26;50.17
77321;BME280;66382;52.252;8.780;2023-04-25T11:28:21;100263.63;;;12.33;51.07
77321;BME280;66382;52.252;8.780;2023-04-25T11:30:48;100251.66;;;12.42;49.93
77321;BME280;66382;52.252;8.780;2023-04-25T11:33:14;100257.84;;;12.43;50.48
77321;BME280;66382;52.252;8.780;2023-04-25T11:35:40;100263.25;;;12.50;50.98
77321;BME280;66382;52.252;8.780;2023-04-25T11:38:06;100262.00;;;12.59;50.82
77321;BME280;66382;52.252;8.780;2023-04-25T11:40:32;100256.41;;;12.67;50.81
77321;BME280;66382;52.252;8.780;2023-04-25T11:43:00;100257.44;;;12.79;50.74
77321;BME280;66382;52.252;8.780;2023-04-25T11:45:28;100260.13;;;12.79;49.98
77321;BME280;66382;52.252;8.780;2023-04-25T11:47:54;100263.81;;;12.91;49.89
77321;BME280;66382;52.252;8.780;2023-04-25T11:50:20;100264.22;;;12.95;47.94
77321;BME280;66382;52.252;8.780;2023-04-25T11:52:46;100265.47;;;12.93;49.55
77321;BME280;66382;52.252;8.780;2023-04-25T11:55:14;100258.03;;;12.95;49.17
77321;BME280;66382;52.252;8.780;2023-04-25T11:57:41;100268.97;;;13.00;49.80
77321;BME280;66382;52.252;8.780;2023-04-25T12:00:09;100269.41;;;13.03;51.08
77321;BME280;66382;52.252;8.780;2023-04-25T12:02:37;100263.38;;;13.08;50.13
77321;BME280;66382;52.252;8.780;2023-04-25T12:05:06;100271.91;;;12.98;49.87
77321;BME280;66382;52.252;8.780;2023-04-25T12:07:32;100269.22;;;12.85;49.70
77321;BME280;66382;52.252;8.780;2023-04-25T12:09:57;100274.41;;;12.80;49.60
77321;BME280;66382;52.252;8.780;2023-04-25T12:12:27;100273.16;;;12.82;50.43
77321;BME280;66382;52.252;8.780;2023-04-25T12:14:53;100275.00;;;12.75;48.21
77321;BME280;66382;52.252;8.780;2023-04-25T12:17:18;100278.56;;;12.69;50.02
77321;BME280;66382;52.252;8.780;2023-04-25T12:19:46;100280.00;;;12.52;49.50
77321;BME280;66382;52.252;8.780;2023-04-25T12:22:19;100270.47;;;12.36;49.52
77321;BME280;66382;52.252;8.780;2023-04-25T12:24:45;100287.44;;;12.30;49.37
77321;BME280;66382;52.252;8.780;2023-04-25T12:27:14;100288.84;;;12.19;49.26
77321;BME280;66382;52.252;8.780;2023-04-25T12:29:50;100291.13;;;12.15;50.30
77321;BME280;66382;52.252;8.780;2023-04-25T12:32:16;100296.91;;;12.19;49.51
77321;BME280;66382;52.252;8.780;2023-04-25T12:34:42;100291.31;;;12.14;48.05
77321;BME280;66382;52.252;8.780;2023-04-25T12:37:09;100288.81;;;12.05;49.35
77321;BME280;66382;52.252;8.780;2023-04-25T12:39:35;100289.63;;;11.93;48.98
77321;BME280;66382;52.252;8.780;2023-04-25T12:42:01;100295.34;;;11.83;49.94
77321;BME280;66382;52.252;8.780;2023-04-25T12:44:26;100309.38;;;11.78;50.65
77321;BME280;66382;52.252;8.780;2023-04-25T12:46:52;100307.28;;;11.67;51.12
77321;BME280;66382;52.252;8.780;2023-04-25T12:49:18;100308.44;;;11.51;50.63
77321;BME280;66382;52.252;8.780;2023-04-25T12:51:43;100306.53;;;11.38;52.01
77321;BME280;66382;52.252;8.780;2023-04-25T12:54:10;100304.00;;;11.30;51.92
77321;BME280;66382;52.252;8.780;2023-04-25T12:56:36;100294.28;;;11.23;50.95